Time;durP1;ratioP1;P1;durP2;ratioP2;P2;SDS_P1;SDS_P2;PMS_P1;PMS_P2;Temp;Humidity;BMP_temperature;BMP_pressure;BME280_temperature;BME280_humidity;BME280_pressure;Samples;Min_cycle;Max_cycle;Signal;HPM_P1;HPM_P2
2022/05/31 00:00:12;;;;;;;3.60;1.60;;;7.40;99.90;7.20;100546.00;;;;4956129;28;110829;-68
2022/05/31 00:02:40;;;;;;;1.97;1.43;;;7.40;99.90;7.20;100545.00;;;;4955957;28;105322;-68
2022/05/31 00:05:06;;;;;;;1.83;1.70;;;7.30;99.90;7.20;100550.00;;;;4955384;28;110116;-68
2022/05/31 00:07:32;;;;;;;2.37;2.17;;;7.30;99.90;7.10;100545.00;;;;4954980;28;100200;-68
2022/05/31 00:09:57;;;;;;;2.47;2.13;;;7.20;99.90;7.00;100542.00;;;;4955249;28;117202;-69
2022/05/31 00:12:23;;;;;;;2.30;1.93;;;7.20;99.90;6.90;100546.00;;;;4954945;28;117587;-68
2022/05/31 00:14:49;;;;;;;1.40;1.30;;;7.10;99.90;6.90;100541.00;;;;4956114;28;108167;-68
2022/05/31 00:17:15;;;;;;;3.43;2.00;;;7.00;99.90;6.80;100543.00;;;;4971729;28;88123;-69
2022/05/31 00:19:41;;;;;;;2.10;1.83;;;6.90;99.90;6.70;100529.00;;;;4956523;28;87832;-68
2022/05/31 00:22:21;;;;;;;1.83;1.60;;;7.20;99.90;6.60;100531.00;;;;4955273;28;117395;-68
2022/05/31 00:24:47;;;;;;;2.63;1.90;;;6.80;99.90;6.60;100522.00;;;;4938724;28;87153;-68
2022/05/31 00:27:16;;;;;;;2.60;1.50;;;6.70;99.90;6.60;100532.00;;;;4954774;28;109161;-69
2022/05/31 00:29:42;;;;;;;1.67;1.40;;;6.90;99.90;6.50;100529.00;;;;4937664;28;87857;-69
2022/05/31 00:32:11;;;;;;;2.83;1.73;;;6.70;99.90;6.50;100530.00;;;;4954243;28;116211;-69
2022/05/31 00:34:42;;;;;;;1.63;1.30;;;6.70;99.90;6.50;100535.00;;;;4956488;28;88011;-68
2022/05/31 00:37:07;;;;;;;2.03;1.87;;;6.70;99.90;6.50;100536.00;;;;4937274;28;87846;-68
2022/05/31 00:39:34;;;;;;;2.87;1.60;;;6.70;99.90;6.50;100532.00;;;;4954718;28;87691;-69
2022/05/31 00:42:07;;;;;;;2.53;1.87;;;6.60;99.90;6.50;100535.00;;;;4956720;28;117884;-69
2022/05/31 00:44:35;;;;;;;2.00;1.80;;;6.60;99.90;6.40;100536.00;;;;4966265;28;102773;-69
2022/05/31 00:47:30;;;;;;;2.17;1.33;;;6.50;99.90;6.30;100533.00;;;;4937849;28;87919;-68
2022/05/31 00:50:27;;;;;;;2.23;1.37;;;6.50;99.90;6.10;100533.00;;;;4953794;28;87011;-68
2022/05/31 00:53:00;;;;;;;2.23;1.83;;;6.40;99.90;6.10;100532.00;;;;4936766;28;97992;-69
2022/05/31 00:55:50;;;;;;;2.10;1.70;;;6.30;99.90;6.10;100533.00;;;;4969805;28;101634;-69
2022/05/31 00:58:23;;;;;;;2.47;2.13;;;6.30;99.90;6.10;100539.00;;;;4942933;28;89083;-68
2022/05/31 01:00:50;;;;;;;2.10;1.40;;;6.50;99.90;6.00;100532.00;;;;4969580;28;87995;-68
2022/05/31 01:03:19;;;;;;;2.10;1.80;;;6.20;99.90;6.00;100532.00;;;;4956060;28;87959;-68
2022/05/31 01:05:45;;;;;;;2.37;2.00;;;6.20;99.90;6.00;100533.00;;;;4937618;28;88386;-69
2022/05/31 01:08:12;;;;;;;2.40;1.57;;;6.10;99.90;5.90;100536.00;;;;4970762;28;87958;-68
2022/05/31 01:10:41;;;;;;;1.70;1.60;;;6.10;99.90;5.90;100529.00;;;;4955874;28;88272;-68
2022/05/31 01:13:08;;;;;;;1.40;1.30;;;6.00;99.90;5.80;100537.00;;;;4955064;28;87703;-68
2022/05/31 01:15:33;;;;;;;1.77;1.57;;;6.00;99.90;5.80;100531.00;;;;4969835;28;95504;-69
2022/05/31 01:17:59;;;;;;;2.37;2.03;;;5.90;99.90;5.70;100530.00;;;;4954249;28;87831;-68
2022/05/31 01:20:25;;;;;;;3.07;1.53;;;6.10;99.90;5.70;100521.00;;;;4953958;28;117935;-69
2022/05/31 01:22:57;;;;;;;1.43;1.33;;;5.80;99.90;5.60;100528.00;;;;4953938;28;117391;-69
2022/05/31 01:25:25;;;;;;;2.03;1.63;;;5.80;99.90;5.60;100523.00;;;;4955183;28;87915;-69
2022/05/31 01:28:17;;;;;;;1.60;1.40;;;5.80;99.90;5.60;100531.00;;;;4954779;28;87656;-69
2022/05/31 01:30:57;;;;;;;1.17;1.07;;;5.80;99.90;5.50;100529.00;;;;4934123;28;88603;-68
2022/05/31 01:33:33;;;;;;;1.37;1.20;;;5.70;99.90;5.50;100521.00;;;;4944543;28;87862;-69
2022/05/31 01:36:11;;;;;;;1.33;1.13;;;5.70;99.90;5.50;100536.00;;;;4936062;28;91574;-68
2022/05/31 01:38:54;;;;;;;1.23;1.13;;;5.70;99.90;5.40;100534.00;;;;4970058;28;87906;-68
2022/05/31 01:41:27;;;;;;;2.37;1.37;;;5.60;99.90;5.50;100540.00;;;;4967673;28;109825;-69
2022/05/31 01:43:55;;;;;;;1.20;1.10;;;5.60;99.90;5.50;100552.00;;;;4978592;28;87862;-68
2022/05/31 01:46:33;;;;;;;2.00;1.70;;;5.60;99.90;5.40;100551.00;;;;4954864;28;102276;-68
2022/05/31 01:49:06;;;;;;;2.00;1.80;;;5.60;99.90;5.40;100552.00;;;;4965293;28;88800;-69
2022/05/31 01:51:34;;;;;;;2.00;1.70;;;5.60;99.90;5.40;100549.00;;;;4936819;28;89067;-69
2022/05/31 01:54:00;;;;;;;1.77;1.67;;;5.60;99.90;5.40;100546.00;;;;4953680;28;111107;-68
2022/05/31 01:56:26;;;;;;;1.97;1.67;;;5.50;99.90;5.30;100545.00;;;;4954540;28;109953;-68
2022/05/31 01:58:54;;;;;;;2.17;1.60;;;5.50;99.90;5.30;100550.00;;;;4953907;28;108280;-68
2022/05/31 02:01:20;;;;;;;4.20;1.43;;;5.50;99.90;5.30;100550.00;;;;4968659;28;117545;-68
2022/05/31 02:03:47;;;;;;;1.70;1.57;;;5.50;99.90;5.30;100550.00;;;;4955032;28;89836;-68
2022/05/31 02:06:30;;;;;;;1.20;1.03;;;5.50;99.90;5.30;100547.00;;;;4953647;28;107721;-68
2022/05/31 02:08:57;;;;;;;1.40;1.30;;;5.40;99.90;5.30;100545.00;;;;4968992;28;87851;-69
2022/05/31 02:11:23;;;;;;;2.07;1.80;;;5.40;99.90;5.30;100545.00;;;;4972626;28;88070;-68
2022/05/31 02:13:49;;;;;;;1.73;1.43;;;5.50;99.90;5.30;100538.00;;;;4957775;28;88667;-68
2022/05/31 02:16:15;;;;;;;1.93;1.47;;;5.40;99.90;5.30;100541.00;;;;4957957;28;95681;-69
2022/05/31 02:21:25;;;;;;;1.73;1.63;;;5.50;99.90;5.30;100559.00;;;;4935466;28;88694;-69
2022/05/31 02:23:51;;;;;;;3.07;2.00;;;5.50;99.90;5.30;100552.00;;;;4954310;28;106927;-69
2022/05/31 02:26:33;;;;;;;1.27;1.17;;;5.50;99.90;5.30;100552.00;;;;4957462;28;87872;-69
2022/05/31 02:28:59;;;;;;;1.73;1.40;;;5.40;99.90;5.30;100546.00;;;;4957513;28;101045;-68
2022/05/31 02:31:26;;;;;;;1.67;1.53;;;5.40;99.90;5.30;100556.00;;;;4957723;28;87095;-68
2022/05/31 02:33:52;;;;;;;2.17;1.67;;;5.40;99.90;5.20;100554.00;;;;4956862;28;87889;-69
2022/05/31 02:36:18;;;;;;;2.93;1.57;;;5.50;99.90;5.20;100552.00;;;;4957200;28;100182;-69
2022/05/31 02:38:44;;;;;;;2.97;1.97;;;5.40;99.90;5.20;100555.00;;;;4957503;28;88770;-69
2022/05/31 02:41:09;;;;;;;1.47;1.00;;;5.70;99.90;5.10;100547.00;;;;4957133;28;89113;-69
2022/05/31 02:43:36;;;;;;;1.53;1.43;;;5.30;99.90;5.10;100549.00;;;;4971122;28;117107;-69
2022/05/31 02:46:03;;;;;;;2.67;2.17;;;5.30;99.90;5.10;100551.00;;;;4977831;28;87744;-69
2022/05/31 02:48:30;;;;;;;1.70;1.60;;;5.20;99.90;5.00;100543.00;;;;4971955;28;87610;-69
2022/05/31 02:50:55;;;;;;;1.47;1.37;;;5.30;99.90;5.00;100553.00;;;;4944934;28;94961;-69
2022/05/31 02:53:21;;;;;;;1.47;1.27;;;5.20;99.90;5.00;100547.00;;;;4957313;28;111920;-69
2022/05/31 02:55:47;;;;;;;3.10;1.30;;;5.20;99.90;4.90;100546.00;;;;4957533;28;87047;-69
2022/05/31 02:58:13;;;;;;;2.40;1.30;;;5.10;99.90;4.90;100546.00;;;;4957288;28;108195;-69
2022/05/31 03:00:39;;;;;;;2.53;1.70;;;5.10;99.90;4.80;100556.00;;;;4955798;28;116526;-69
2022/05/31 03:03:05;;;;;;;2.53;1.20;;;5.00;99.90;4.80;100547.00;;;;4957367;28;88840;-69
2022/05/31 03:05:30;;;;;;;4.47;2.00;;;5.20;99.90;4.70;100549.00;;;;4957451;28;101117;-69
2022/05/31 03:07:56;;;;;;;2.20;1.40;;;4.90;99.90;4.60;100544.00;;;;4957475;28;98228;-69
2022/05/31 03:10:22;;;;;;;2.07;1.63;;;4.80;99.90;4.60;100543.00;;;;4955964;28;108226;-69
2022/05/31 03:12:55;;;;;;;2.30;1.43;;;5.00;99.90;4.60;100542.00;;;;4956569;28;116399;-69
2022/05/31 03:15:23;;;;;;;1.73;1.63;;;4.80;99.90;4.60;100548.00;;;;4938601;28;87932;-69
2022/05/31 03:18:00;;;;;;;2.17;1.27;;;4.70;99.90;4.50;100542.00;;;;4939385;28;87480;-69
2022/05/31 03:20:38;;;;;;;1.90;1.80;;;4.70;99.90;4.50;100549.00;;;;4971316;28;105239;-69
2022/05/31 03:23:39;;;;;;;1.90;1.80;;;4.70;99.90;4.40;100556.00;;;;4971502;28;106230;-69
2022/05/31 03:26:12;;;;;;;1.57;1.47;;;4.60;99.90;4.40;100550.00;;;;4951576;28;95109;-69
2022/05/31 03:28:39;;;;;;;2.73;1.97;;;4.60;99.90;4.50;100534.00;;;;4953174;28;88745;-69
2022/05/31 03:31:06;;;;;;;3.27;1.97;;;4.60;99.90;4.50;100540.00;;;;4957334;28;88332;-69
2022/05/31 03:33:35;;;;;;;2.30;2.10;;;4.60;99.90;4.50;100534.00;;;;4970949;28;106360;-69
2022/05/31 03:36:01;;;;;;;5.13;2.20;;;4.70;99.90;4.60;100541.00;;;;4938318;28;109976;-69
2022/05/31 03:38:26;;;;;;;1.80;1.67;;;4.90;99.90;4.60;100545.00;;;;4938813;28;106871;-69
2022/05/31 03:43:36;;;;;;;2.77;2.57;;;4.80;99.90;4.70;100549.00;;;;4959900;28;87901;-69
2022/05/31 03:46:03;;;;;;;5.23;2.73;;;4.90;99.90;4.80;100538.00;;;;4956346;28;86970;-69
2022/05/31 03:48:28;;;;;;;4.13;2.20;;;4.90;99.90;4.80;100543.00;;;;4967071;28;108327;-69
2022/05/31 03:51:16;;;;;;;5.17;3.07;;;4.90;99.90;4.90;100537.00;;;;4956603;28;109534;-69
2022/05/31 03:53:42;;;;;;;2.97;2.57;;;5.00;99.90;5.00;100541.00;;;;4955843;28;105359;-69
2022/05/31 03:56:13;;;;;;;2.30;1.80;;;5.10;99.90;5.10;100552.00;;;;4957178;28;87543;-69
2022/05/31 03:58:40;;;;;;;3.03;2.73;;;5.20;99.90;5.20;100546.00;;;;4956186;28;87800;-69
2022/05/31 04:01:11;;;;;;;7.23;2.60;;;5.30;99.90;5.30;100555.00;;;;4956452;28;90808;-69
2022/05/31 04:03:37;;;;;;;2.33;1.80;;;5.40;99.90;5.40;100559.00;;;;4955870;28;118175;-69
2022/05/31 04:06:03;;;;;;;3.17;2.87;;;5.50;99.90;5.60;100544.00;;;;4956013;28;110104;-69
2022/05/31 04:08:28;;;;;;;5.30;2.10;;;5.60;99.90;5.70;100554.00;;;;4937348;28;87671;-69
2022/05/31 04:10:55;;;;;;;2.90;2.63;;;5.70;99.90;5.80;100548.00;;;;4935904;28;108207;-69
2022/05/31 04:13:22;;;;;;;2.73;2.47;;;5.80;99.90;5.80;100550.00;;;;4942682;28;88276;-69
2022/05/31 04:15:48;;;;;;;3.67;2.13;;;5.90;99.90;5.90;100546.00;;;;4956360;28;87783;-69
2022/05/31 04:18:15;;;;;;;2.53;2.33;;;6.20;99.90;5.90;100549.00;;;;4956613;28;88806;-69
2022/05/31 04:20:41;;;;;;;3.33;2.90;;;6.00;99.90;5.90;100550.00;;;;4969841;28;88001;-69
2022/05/31 04:26:03;;;;;;;2.40;2.10;;;6.00;99.90;5.90;100563.00;;;;4962896;28;88016;-69
2022/05/31 04:28:29;;;;;;;3.30;1.80;;;6.10;99.90;6.00;100556.00;;;;4950629;28;87738;-69
2022/05/31 04:30:55;;;;;;;2.43;1.93;;;6.00;99.90;6.10;100559.00;;;;4968201;28;87957;-69
2022/05/31 04:33:20;;;;;;;3.10;1.73;;;6.20;99.90;6.20;100554.00;;;;4969061;28;117836;-69
2022/05/31 04:35:46;;;;;;;2.37;1.80;;;6.30;99.90;6.40;100552.00;;;;4967736;28;109616;-69
2022/05/31 04:38:12;;;;;;;2.30;2.10;;;6.70;99.90;6.50;100555.00;;;;4963849;28;108464;-69
2022/05/31 04:40:38;;;;;;;2.03;1.87;;;6.50;99.90;6.70;100557.00;;;;4971489;28;101830;-69
2022/05/31 04:43:05;;;;;;;3.07;2.50;;;6.70;99.90;6.90;100562.00;;;;4961335;28;89033;-69
2022/05/31 04:45:31;;;;;;;3.73;2.10;;;7.10;99.90;7.10;100565.00;;;;4964064;28;87867;-69
2022/05/31 04:47:57;;;;;;;2.77;2.13;;;7.40;99.90;7.30;100563.00;;;;4972857;28;88417;-69
2022/05/31 04:50:23;;;;;;;2.40;2.17;;;7.20;99.90;7.40;100571.00;;;;4965055;28;117093;-69
2022/05/31 04:52:48;;;;;;;2.40;2.20;;;7.40;99.90;7.50;100571.00;;;;4972503;28;88659;-69
2022/05/31 04:55:14;;;;;;;3.00;2.20;;;7.50;99.90;7.60;100565.00;;;;4960793;28;110700;-69
2022/05/31 04:57:40;;;;;;;2.00;1.73;;;7.60;99.90;7.70;100556.00;;;;4965714;28;106890;-69
2022/05/31 05:00:06;;;;;;;2.63;2.43;;;7.70;99.90;7.80;100570.00;;;;4964228;28;116120;-69
2022/05/31 05:02:33;;;;;;;2.50;2.30;;;7.80;99.90;7.90;100569.00;;;;4964883;28;87842;-69
2022/05/31 05:04:59;;;;;;;4.30;3.13;;;7.90;99.90;8.10;100576.00;;;;4970614;28;87860;-68
2022/05/31 05:07:28;;;;;;;4.50;2.60;;;8.00;99.90;8.20;100568.00;;;;4971458;28;88928;-69
2022/05/31 05:09:53;;;;;;;7.63;2.37;;;8.20;99.90;8.30;100571.00;;;;4955726;28;88898;-69
2022/05/31 05:12:19;;;;;;;2.17;1.97;;;8.30;99.90;8.50;100563.00;;;;4975959;28;88874;-68
2022/05/31 05:14:45;;;;;;;2.73;1.90;;;8.40;99.90;8.60;100568.00;;;;4955702;28;109682;-69
2022/05/31 05:17:10;;;;;;;2.17;1.83;;;8.60;99.90;8.70;100580.00;;;;4954399;28;108702;-69
2022/05/31 05:19:36;;;;;;;3.67;1.80;;;8.70;99.90;8.90;100573.00;;;;4954740;28;119655;-70
2022/05/31 05:22:02;;;;;;;3.80;2.80;;;8.80;99.90;9.10;100575.00;;;;4970614;28;87861;-68
2022/05/31 05:24:28;;;;;;;1.90;1.53;;;9.00;99.90;9.40;100575.00;;;;4956060;28;87134;-69
2022/05/31 05:26:53;;;;;;;2.20;1.87;;;9.30;99.90;9.70;100563.00;;;;4952049;28;108560;-69
2022/05/31 05:32:08;;;;;;;2.23;2.00;;;9.80;99.90;10.30;100570.00;;;;4953559;28;88580;-69
2022/05/31 05:34:34;;;;;;;3.10;1.73;;;10.20;99.90;10.50;100566.00;;;;4955835;28;87747;-68
2022/05/31 05:36:59;;;;;;;2.77;1.90;;;10.40;99.90;10.70;100569.00;;;;4954027;28;108738;-68
2022/05/31 05:39:25;;;;;;;2.20;1.43;;;10.60;99.90;10.80;100580.00;;;;4936017;28;117220;-68
2022/05/31 05:41:51;;;;;;;1.70;1.47;;;10.70;99.90;11.00;100572.00;;;;4955049;28;116403;-68
2022/05/31 05:44:16;;;;;;;2.07;1.63;;;10.90;99.90;11.10;100569.00;;;;4964226;28;87730;-68
2022/05/31 05:46:43;;;;;;;3.27;1.57;;;11.00;99.90;11.30;100565.00;;;;4968739;28;107274;-68
2022/05/31 05:49:08;;;;;;;4.93;2.00;;;11.20;99.90;11.60;100569.00;;;;4965245;28;88221;-68
2022/05/31 05:51:34;;;;;;;1.87;1.67;;;11.40;99.90;11.80;100582.00;;;;4954163;28;115685;-68
2022/05/31 05:54:03;;;;;;;2.37;1.70;;;11.70;99.90;12.00;100583.00;;;;4955663;28;87938;-68
2022/05/31 05:56:30;;;;;;;1.73;1.53;;;11.90;99.90;12.20;100571.00;;;;4954901;28;88918;-68
2022/05/31 05:58:56;;;;;;;3.80;1.60;;;12.00;99.90;12.30;100570.00;;;;4954502;28;110416;-68
2022/05/31 06:01:46;;;;;;;1.57;1.47;;;12.20;99.90;12.40;100566.00;;;;4954681;28;89037;-68
2022/05/31 06:04:30;;;;;;;1.83;1.73;;;12.30;99.90;12.60;100572.00;;;;4932805;28;88067;-68
2022/05/31 06:07:14;;;;;;;1.60;1.50;;;12.50;99.90;12.70;100572.00;;;;4906668;28;87634;-68
2022/05/31 06:09:43;;;;;;;2.37;1.77;;;12.60;99.90;12.80;100574.00;;;;4968661;28;111596;-67
2022/05/31 06:12:14;;;;;;;3.20;1.70;;;12.70;99.90;13.00;100569.00;;;;4936417;28;92976;-67
2022/05/31 06:14:46;;;;;;;2.53;1.67;;;12.80;99.90;13.00;100578.00;;;;4955132;28;88332;-67
2022/05/31 06:17:21;;;;;;;2.07;1.87;;;12.90;99.90;13.10;100565.00;;;;4968684;28;101541;-67
2022/05/31 06:19:49;;;;;;;2.33;1.67;;;13.00;99.90;13.20;100579.00;;;;4969272;28;88858;-67
2022/05/31 06:22:16;;;;;;;2.60;1.47;;;13.10;99.90;13.40;100591.00;;;;4968788;28;101388;-67
2022/05/31 06:24:43;;;;;;;1.70;1.60;;;13.30;99.90;13.50;100591.00;;;;4936056;28;102730;-69
2022/05/31 06:27:09;;;;;;;1.03;0.93;;;13.40;99.90;13.70;100596.00;;;;4936767;28;88147;-67
2022/05/31 06:29:35;;;;;;;1.47;1.37;;;13.60;99.90;13.90;100590.00;;;;4945838;28;88400;-68
2022/05/31 06:32:03;;;;;;;1.73;1.40;;;13.70;99.90;14.20;100595.00;;;;4953892;28;88088;-68
2022/05/31 06:34:29;;;;;;;2.03;0.87;;;14.00;99.90;14.30;100593.00;;;;4935825;28;97737;-68
2022/05/31 06:37:04;;;;;;;1.63;1.40;;;14.20;99.90;14.60;100593.00;;;;4954265;28;87727;-68
2022/05/31 06:39:30;;;;;;;3.80;1.10;;;14.40;99.90;14.80;100596.00;;;;4954971;28;88997;-68
2022/05/31 06:41:56;;;;;;;1.43;1.33;;;14.60;99.90;14.90;100592.00;;;;4954559;28;116197;-69
2022/05/31 06:44:22;;;;;;;0.93;0.80;;;14.70;99.90;15.10;100594.00;;;;4965106;28;109891;-68
2022/05/31 06:46:47;;;;;;;1.67;1.58;;;14.90;99.90;15.40;100582.00;;;;4953864;28;107093;-68
2022/05/31 06:49:13;;;;;;;1.05;0.93;;;15.20;99.90;15.50;100583.00;;;;4955822;28;118062;-69
2022/05/31 06:57:07;;;;;;;1.67;0.82;;;15.70;98.40;16.20;100590.00;;;;4954635;28;87835;-68
2022/05/31 06:59:33;;;;;;;1.88;1.05;;;16.00;97.60;16.50;100594.00;;;;4956455;28;115640;-68
2022/05/31 07:02:04;;;;;;;0.70;0.60;;;16.20;96.30;16.60;100587.00;;;;4957559;28;89039;-68
2022/05/31 07:04:32;;;;;;;1.23;0.98;;;16.40;95.80;16.80;100588.00;;;;4958647;28;87303;-69
2022/05/31 07:06:57;;;;;;;2.15;0.88;;;16.50;94.90;17.00;100582.00;;;;4956891;28;87680;-69
2022/05/31 07:09:23;;;;;;;2.72;1.02;;;16.70;93.90;17.20;100573.00;;;;4957065;28;89094;-69
2022/05/31 07:11:49;;;;;;;0.70;0.70;;;16.90;93.70;17.50;100579.00;;;;4957334;28;89195;-68
2022/05/31 07:14:14;;;;;;;1.08;0.63;;;17.20;93.20;17.80;100580.00;;;;4938389;28;110385;-68
2022/05/31 07:16:42;;;;;;;1.27;0.70;;;17.50;92.70;18.00;100580.00;;;;4950045;28;109256;-69
2022/05/31 07:19:07;;;;;;;0.68;0.63;;;17.80;88.60;18.20;100577.00;;;;4938382;28;115802;-69
2022/05/31 07:21:33;;;;;;;0.60;0.60;;;17.90;86.00;18.30;100573.00;;;;4971373;28;116260;-69
2022/05/31 07:23:58;;;;;;;1.70;0.80;;;18.10;81.70;18.40;100572.00;;;;4957690;28;95012;-68
2022/05/31 07:26:25;;;;;;;0.45;0.45;;;18.20;80.00;18.40;100556.00;;;;4956266;28;108721;-69
2022/05/31 07:28:50;;;;;;;1.00;0.80;;;18.30;76.90;18.50;100564.00;;;;4957774;28;87140;-68
2022/05/31 07:31:16;;;;;;;0.40;0.40;;;18.30;77.60;18.70;100573.00;;;;4957496;28;116165;-69
2022/05/31 07:33:42;;;;;;;0.60;0.60;;;18.50;76.50;18.90;100565.00;;;;4955832;28;110494;-69
2022/05/31 07:36:08;;;;;;;2.42;0.80;;;18.60;73.70;18.90;100570.00;;;;4957293;28;88857;-68
2022/05/31 07:38:34;;;;;;;0.70;0.50;;;18.70;72.40;19.00;100562.00;;;;4955359;28;117800;-69
2022/05/31 07:40:59;;;;;;;0.68;0.68;;;18.80;71.50;19.10;100571.00;;;;4957284;28;87904;-68
2022/05/31 07:43:25;;;;;;;0.98;0.77;;;18.90;72.40;19.40;100565.00;;;;4969176;28;110677;-69
2022/05/31 07:46:05;;;;;;;0.57;0.57;;;19.10;72.20;19.70;100558.00;;;;4976379;28;105002;-68
2022/05/31 07:48:35;;;;;;;1.33;0.55;;;19.40;67.00;19.80;100571.00;;;;4958598;28;87876;-70
2022/05/31 07:51:02;;;;;;;0.70;0.55;;;19.50;64.80;19.90;100567.00;;;;4947812;28;88080;-69
2022/05/31 07:53:27;;;;;;;5.35;0.38;;;19.60;64.20;20.00;100559.00;;;;4958284;28;101935;-68
2022/05/31 07:56:00;;;;;;;0.43;0.43;;;19.70;64.40;20.20;100564.00;;;;4938273;28;107863;-68
2022/05/31 07:58:32;;;;;;;1.45;0.60;;;19.90;64.40;20.50;100558.00;;;;4949031;28;88301;-69
2022/05/31 08:01:00;;;;;;;1.00;0.68;;;20.20;58.40;20.50;100553.00;;;;4956407;28;88517;-68
2022/05/31 08:03:29;;;;;;;0.40;0.38;;;20.30;58.80;20.50;100553.00;;;;4956989;28;87779;-68
2022/05/31 08:05:56;;;;;;;0.45;0.30;;;20.30;58.60;20.60;100555.00;;;;4957458;28;87739;-68
2022/05/31 08:08:22;;;;;;;0.70;0.70;;;20.40;59.30;20.90;100544.00;;;;4956480;28;88527;-67
2022/05/31 08:10:48;;;;;;;2.65;0.60;;;20.60;56.10;21.00;100554.00;;;;4956133;28;92956;-68
2022/05/31 08:13:14;;;;;;;0.50;0.50;;;20.70;56.00;21.10;100544.00;;;;4971873;28;87693;-70
2022/05/31 08:15:39;;;;;;;0.30;0.30;;;20.80;56.90;21.20;100553.00;;;;4956253;28;93093;-69
2022/05/31 08:18:06;;;;;;;0.63;0.52;;;20.90;55.20;21.20;100545.00;;;;4956373;28;88084;-68
2022/05/31 08:20:31;;;;;;;0.68;0.45;;;21.00;54.40;21.10;100538.00;;;;4955854;28;88518;-68
2022/05/31 08:22:57;;;;;;;0.55;0.43;;;20.90;53.40;21.10;100534.00;;;;4970040;28;110007;-68
2022/05/31 08:25:23;;;;;;;0.77;0.63;;;20.90;53.40;21.20;100545.00;;;;4955661;28;88898;-66
2022/05/31 08:27:49;;;;;;;0.50;0.50;;;20.90;54.30;21.20;100540.00;;;;4955830;28;94910;-68
2022/05/31 08:30:15;;;;;;;0.50;0.50;;;21.00;51.90;20.80;100530.00;;;;4955179;28;88508;-66
2022/05/31 08:32:41;;;;;;;1.05;0.95;;;20.70;51.90;20.60;100529.00;;;;4953562;28;110581;-67
2022/05/31 08:35:07;;;;;;;0.88;0.75;;;20.50;53.30;20.50;100537.00;;;;4956454;28;87896;-66
2022/05/31 08:37:33;;;;;;;0.82;0.68;;;20.40;53.90;20.50;100532.00;;;;4955962;28;87980;-68
2022/05/31 08:39:59;;;;;;;1.42;0.70;;;20.30;54.10;20.50;100526.00;;;;4955695;28;103385;-68
2022/05/31 08:42:48;;;;;;;3.40;0.85;;;20.30;53.40;20.60;100525.00;;;;4961911;28;87048;-68
2022/05/31 08:45:44;;;;;;;2.38;0.77;;;20.30;54.10;20.70;100518.00;;;;4944221;28;88066;-69
2022/05/31 08:48:30;;;;;;;0.45;0.40;;;20.40;52.50;20.70;100523.00;;;;4969969;28;112030;-68
2022/05/31 08:56:57;;;;;;;0.82;0.60;;;20.50;52.20;20.90;100504.00;;;;4940273;28;87786;-68
2022/05/31 08:59:40;;;;;;;1.60;0.82;;;20.60;52.70;21.10;100503.00;;;;4969870;28;104286;-69
2022/05/31 09:02:16;;;;;;;0.47;0.40;;;20.80;52.40;21.20;100504.00;;;;4970324;28;87891;-69
2022/05/31 09:04:49;;;;;;;0.45;0.45;;;20.90;50.90;21.30;100501.00;;;;4951472;28;87987;-70
2022/05/31 09:07:33;;;;;;;1.48;0.80;;;20.90;51.20;21.40;100507.00;;;;4935067;28;99800;-70
2022/05/31 09:10:12;;;;;;;1.58;0.70;;;21.10;51.50;21.60;100493.00;;;;4933816;28;108493;-72
2022/05/31 09:12:48;;;;;;;0.50;0.50;;;21.30;51.50;21.90;100498.00;;;;4936404;28;108880;-73
2022/05/31 09:15:21;;;;;;;1.20;0.50;;;21.50;51.30;22.10;100488.00;;;;4970044;28;87707;-74
2022/05/31 09:18:17;;;;;;;0.50;0.50;;;21.70;50.70;22.30;100488.00;;;;4969788;28;88420;-72
2022/05/31 09:21:04;;;;;;;0.68;0.50;;;21.90;50.50;22.50;100493.00;;;;4952753;28;89798;-72
2022/05/31 09:23:39;;;;;;;1.50;1.27;;;22.20;50.40;22.70;100488.00;;;;4936826;28;88007;-71
2022/05/31 09:26:08;;;;;;;1.70;0.73;;;22.40;49.50;22.70;100491.00;;;;4957152;28;88007;-72
2022/05/31 09:28:59;;;;;;;0.68;0.68;;;22.40;48.00;22.60;100481.00;;;;4948493;28;87853;-74
2022/05/31 09:31:43;;;;;;;1.08;0.80;;;22.30;47.90;22.70;100488.00;;;;4945844;28;88629;-72
2022/05/31 09:34:35;;;;;;;0.40;0.40;;;22.30;47.80;22.60;100479.00;;;;4936894;28;88096;-73
2022/05/31 09:37:20;;;;;;;0.85;0.60;;;22.40;48.00;22.80;100485.00;;;;4934966;28;86982;-73
2022/05/31 09:40:07;;;;;;;0.60;0.60;;;22.40;47.40;22.80;100480.00;;;;4937343;28;87826;-72
2022/05/31 09:43:17;;;;;;;1.17;0.70;;;22.50;47.30;22.90;100471.00;;;;4961120;28;87861;-73
2022/05/31 09:46:17;;;;;;;2.00;0.55;;;22.50;47.90;23.00;100462.00;;;;4925623;28;89218;-73
2022/05/31 09:48:50;;;;;;;0.68;0.65;;;22.60;48.00;23.30;100466.00;;;;4928853;28;88066;-74
2022/05/31 09:51:40;;;;;;;0.82;0.82;;;22.80;48.40;23.40;100460.00;;;;4917771;28;87828;-72
2022/05/31 09:57:06;;;;;;;1.73;1.00;;;22.90;45.10;22.60;100460.00;;;;4944619;28;89201;-72
2022/05/31 09:59:49;;;;;;;0.55;0.50;;;22.50;45.90;22.60;100460.00;;;;4962763;28;88018;-73
2022/05/31 10:02:28;;;;;;;1.45;0.93;;;22.40;46.50;22.80;100468.00;;;;4916498;28;97742;-72
2022/05/31 10:05:20;;;;;;;0.52;0.52;;;22.40;47.00;23.00;100460.00;;;;4964144;28;86954;-72
2022/05/31 10:07:46;;;;;;;1.02;0.88;;;22.60;47.60;23.20;100457.00;;;;4948879;28;87939;-75
2022/05/31 10:10:24;;;;;;;2.00;1.17;;;22.80;46.80;23.10;100459.00;;;;4934246;28;105620;-72
2022/05/31 10:13:01;;;;;;;0.80;0.80;;;22.80;45.60;23.10;100453.00;;;;4961590;28;88509;-73
2022/05/31 10:15:46;;;;;;;1.38;0.65;;;22.70;45.90;23.30;100448.00;;;;4949630;28;87931;-72
2022/05/31 10:18:30;;;;;;;0.45;0.45;;;22.90;45.90;23.60;100439.00;;;;4949351;28;87990;-72
2022/05/31 10:21:03;;;;;;;1.48;0.73;;;23.00;46.20;23.70;100435.00;;;;4914838;28;87874;-72
2022/05/31 10:23:39;;;;;;;0.70;0.60;;;23.20;44.20;23.80;100436.00;;;;4916105;28;87874;-72
2022/05/31 10:26:05;;;;;;;0.75;0.60;;;23.30;44.40;24.00;100429.00;;;;4948577;28;88184;-75
2022/05/31 10:28:38;;;;;;;0.63;0.50;;;23.40;45.20;24.20;100433.00;;;;4964889;28;87755;-72
2022/05/31 10:31:25;;;;;;;0.73;0.70;;;23.60;44.20;24.30;100434.00;;;;4969803;28;86983;-74
2022/05/31 10:33:58;;;;;;;1.00;0.82;;;23.80;44.30;24.40;100429.00;;;;4939526;28;88064;-73
2022/05/31 10:36:46;;;;;;;0.73;0.73;;;23.90;43.90;24.40;100427.00;;;;4938733;28;104255;-74
2022/05/31 10:39:28;;;;;;;1.80;0.77;;;23.90;43.80;24.30;100431.00;;;;4953686;28;90526;-72
2022/05/31 10:41:58;;;;;;;2.42;0.63;;;23.90;43.40;24.10;100427.00;;;;4923947;28;87741;-72
2022/05/31 10:44:33;;;;;;;0.70;0.55;;;23.80;43.60;24.10;100434.00;;;;4970818;28;87835;-73
2022/05/31 10:47:16;;;;;;;0.40;0.40;;;23.80;44.20;24.40;100435.00;;;;4938476;28;87949;-73
2022/05/31 10:49:44;;;;;;;0.68;0.57;;;23.90;44.50;24.70;100434.00;;;;4948604;28;98571;-72
2022/05/31 10:53:03;;;;;;;0.35;0.35;;;24.20;44.50;25.10;100429.00;;;;4958032;28;87627;-73
2022/05/31 10:55:37;;;;;;;2.00;0.60;;;24.50;44.30;25.30;100417.00;;;;4964189;28;100364;-75
2022/05/31 10:58:11;;;;;;;0.50;0.50;;;24.80;42.30;25.00;100418.00;;;;4955261;28;88682;-76
2022/05/31 11:00:55;;;;;;;0.40;0.40;;;24.70;42.10;24.80;100419.00;;;;4958105;28;88170;-74
2022/05/31 11:03:50;;;;;;;0.57;0.35;;;24.50;42.70;24.70;100419.00;;;;4922988;28;87713;-73
2022/05/31 11:06:37;;;;;;;2.30;0.60;;;24.40;43.30;24.70;100420.00;;;;4934860;28;99650;-72
2022/05/31 11:13:48;;;;;;;0.55;0.55;;;24.30;43.40;24.60;100408.00;;;;4956899;28;87832;-73
2022/05/31 11:16:56;;;;;;;2.90;0.80;;;24.20;43.90;24.80;100413.00;;;;4972423;28;87689;-72
2022/05/31 11:19:53;;;;;;;0.60;0.60;;;24.40;44.20;24.90;100404.00;;;;4936919;28;97851;-73
2022/05/31 11:22:56;;;;;;;0.93;0.40;;;24.50;44.30;24.90;100406.00;;;;4957247;28;88182;-73
2022/05/31 11:25:58;;;;;;;0.52;0.52;;;24.50;44.00;24.90;100401.00;;;;4919167;28;89762;-73
2022/05/31 11:29:05;;;;;;;0.35;0.30;;;24.50;43.80;24.80;100401.00;;;;4918663;28;87294;-73
2022/05/31 11:31:54;;;;;;;0.50;0.47;;;24.50;43.50;24.50;100401.00;;;;4930016;28;87822;-73
2022/05/31 11:35:04;;;;;;;0.80;0.60;;;24.30;42.50;24.60;100385.00;;;;4952286;28;87984;-75
2022/05/31 11:37:57;;;;;;;0.93;0.50;;;24.20;43.00;25.10;100390.00;;;;4931694;28;88593;-73
2022/05/31 11:40:54;;;;;;;0.47;0.47;;;24.50;43.50;25.90;100390.00;;;;4949672;28;101706;-76
2022/05/31 11:43:59;;;;;;;0.40;0.40;;;25.10;43.40;26.60;100382.00;;;;4948304;28;89318;-73